Time;durP1;ratioP1;P1;durP2;ratioP2;P2;SDS_P1;SDS_P2;PMS_P1;PMS_P2;Temp;Humidity;BMP_temperature;BMP_pressure;BME280_temperature;BME280_humidity;BME280_pressure;Samples;Min_cycle;Max_cycle;Signal;HPM_P1;HPM_P2
2023/07/12 00:00:31;;;;;;;3.83;2.40;;;18.70;99.90;;;;;;5109452;28;20046;-64
2023/07/12 00:02:58;;;;;;;2.83;2.30;;;18.70;99.90;;;;;;5109691;28;20043;-65
2023/07/12 00:05:28;;;;;;;3.15;2.10;;;18.60;99.90;;;;;;5109171;28;20031;-64
2023/07/12 00:07:54;;;;;;;3.10;2.65;;;18.70;99.90;;;;;;5109067;28;20044;-64
2023/07/12 00:10:27;;;;;;;3.83;2.50;;;18.70;99.90;;;;;;5108194;28;20062;-65
2023/07/12 00:12:53;;;;;;;6.65;3.13;;;18.70;99.90;;;;;;5111610;28;20718;-64
2023/07/12 00:15:38;;;;;;;4.35;2.75;;;18.60;99.90;;;;;;5109262;28;20110;-65
2023/07/12 00:18:10;;;;;;;4.13;2.42;;;18.60;99.90;;;;;;5111675;28;20044;-64
2023/07/12 00:20:36;;;;;;;2.45;2.20;;;18.60;99.90;;;;;;5106696;28;20071;-64
2023/07/12 00:23:03;;;;;;;3.45;2.13;;;18.60;99.90;;;;;;5118450;27;20127;-64
2023/07/12 00:25:31;;;;;;;2.83;2.28;;;18.60;99.90;;;;;;5112033;27;20039;-64
2023/07/12 00:27:58;;;;;;;3.67;2.00;;;18.50;99.90;;;;;;5117033;27;20063;-64
2023/07/12 00:30:29;;;;;;;3.78;2.30;;;18.50;99.90;;;;;;5111873;28;20051;-63
2023/07/12 00:33:03;;;;;;;3.15;1.92;;;18.50;99.90;;;;;;5126578;27;20477;-64
2023/07/12 00:35:30;;;;;;;3.28;2.17;;;18.40;99.90;;;;;;5120949;27;20047;-63
2023/07/12 00:37:59;;;;;;;2.70;1.85;;;18.40;99.90;;;;;;5123176;27;20449;-63
2023/07/12 00:41:00;;;;;;;3.30;2.15;;;18.40;99.90;;;;;;5119113;27;20119;-65
2023/07/12 00:43:43;;;;;;;4.50;2.58;;;18.40;99.90;;;;;;5111559;28;20110;-64
2023/07/12 00:46:16;;;;;;;2.38;2.17;;;18.40;99.90;;;;;;5121212;27;20045;-65
2023/07/12 00:48:41;;;;;;;3.25;2.08;;;18.30;99.90;;;;;;5124475;27;20106;-63
2023/07/12 00:51:36;;;;;;;2.95;2.03;;;18.30;99.90;;;;;;5121426;27;20121;-63
2023/07/12 00:54:13;;;;;;;2.35;2.15;;;18.30;99.90;;;;;;5127691;27;20054;-64
2023/07/12 00:56:39;;;;;;;2.75;2.03;;;18.30;99.90;;;;;;5125475;27;20039;-63
2023/07/12 00:59:08;;;;;;;3.67;2.08;;;18.30;99.90;;;;;;5129239;27;20042;-65
2023/07/12 01:01:36;;;;;;;4.50;2.65;;;18.30;99.90;;;;;;5119430;27;20050;-65
2023/07/12 01:04:03;;;;;;;3.05;2.60;;;18.20;99.90;;;;;;5125713;27;20110;-64
2023/07/12 01:06:29;;;;;;;5.40;2.13;;;18.20;99.90;;;;;;5130915;27;20043;-64
2023/07/12 01:09:03;;;;;;;3.88;2.38;;;18.10;99.90;;;;;;5131099;27;20485;-63
2023/07/12 01:11:29;;;;;;;2.95;2.20;;;18.10;99.90;;;;;;5127343;27;20027;-65
2023/07/12 01:13:55;;;;;;;3.85;2.35;;;18.10;99.90;;;;;;5117802;27;20047;-64
2023/07/12 01:16:22;;;;;;;5.03;2.30;;;18.10;99.90;;;;;;5123369;27;20390;-64
2023/07/12 01:18:48;;;;;;;4.70;2.10;;;18.10;99.90;;;;;;5124304;27;20054;-64
2023/07/12 01:21:22;;;;;;;2.67;2.10;;;18.10;99.90;;;;;;5119025;27;20035;-64
2023/07/12 01:23:47;;;;;;;2.83;2.28;;;18.10;99.90;;;;;;5108588;27;20047;-64
2023/07/12 01:26:24;;;;;;;2.92;2.20;;;18.10;99.90;;;;;;5122355;27;20052;-64
2023/07/12 01:28:56;;;;;;;4.68;2.35;;;18.10;99.90;;;;;;5125825;27;20495;-66
2023/07/12 01:31:24;;;;;;;3.50;2.70;;;18.00;99.90;;;;;;5128362;27;20513;-64
2023/07/12 01:33:51;;;;;;;3.35;2.67;;;17.90;99.90;;;;;;5125603;27;20122;-64
2023/07/12 01:36:17;;;;;;;4.18;2.78;;;17.90;99.90;;;;;;5120437;27;20046;-64
2023/07/12 01:38:43;;;;;;;5.90;2.80;;;17.90;99.90;;;;;;5117778;27;20036;-64
2023/07/12 01:41:09;;;;;;;8.32;2.53;;;17.80;99.90;;;;;;5132471;27;20042;-65
2023/07/12 01:43:35;;;;;;;7.00;2.55;;;17.70;99.90;;;;;;5125575;27;20047;-64
2023/07/12 01:46:01;;;;;;;4.15;2.10;;;17.70;99.90;;;;;;5131165;27;20071;-64
2023/07/12 01:48:26;;;;;;;4.00;2.65;;;17.70;99.90;;;;;;5116681;27;20134;-63
2023/07/12 01:50:52;;;;;;;3.42;2.20;;;17.70;99.90;;;;;;5097624;28;20051;-64
2023/07/12 01:53:18;;;;;;;3.95;2.08;;;17.60;99.90;;;;;;5123114;27;20096;-64
2023/07/12 01:55:44;;;;;;;7.22;2.38;;;17.60;99.90;;;;;;5121439;27;20111;-64
2023/07/12 01:58:10;;;;;;;4.80;2.13;;;17.50;99.90;;;;;;5120926;27;20404;-64
2023/07/12 02:00:36;;;;;;;5.70;2.63;;;17.50;99.90;;;;;;5120538;27;20485;-64
2023/07/12 02:03:01;;;;;;;5.18;2.80;;;17.40;99.90;;;;;;5113673;27;20042;-65
2023/07/12 02:05:27;;;;;;;4.72;2.20;;;17.40;99.90;;;;;;5115131;27;20126;-63
2023/07/12 02:07:56;;;;;;;5.30;2.50;;;17.30;99.90;;;;;;5121290;27;20038;-63
2023/07/12 02:10:23;;;;;;;6.78;2.60;;;17.30;99.90;;;;;;5122550;27;20031;-64
2023/07/12 02:12:49;;;;;;;7.53;2.78;;;17.30;99.90;;;;;;5128466;27;20494;-64
2023/07/12 02:15:15;;;;;;;5.80;2.70;;;17.30;99.90;;;;;;5103495;27;20080;-64
2023/07/12 02:17:41;;;;;;;6.57;3.42;;;17.30;99.90;;;;;;5124884;27;20050;-64
2023/07/12 02:20:09;;;;;;;5.15;3.17;;;17.20;99.90;;;;;;5127480;27;20122;-64
2023/07/12 02:22:37;;;;;;;5.63;3.45;;;17.20;99.90;;;;;;5126937;27;20103;-64
2023/07/12 02:25:04;;;;;;;5.18;3.30;;;17.20;99.90;;;;;;5123206;27;20092;-63
2023/07/12 02:27:30;;;;;;;6.50;3.58;;;17.20;99.90;;;;;;5125702;27;20043;-65
2023/07/12 02:29:56;;;;;;;5.35;3.78;;;17.30;99.90;;;;;;5120768;27;20035;-64
2023/07/12 02:32:22;;;;;;;9.60;3.88;;;17.20;99.90;;;;;;5114528;27;20130;-64
2023/07/12 02:34:49;;;;;;;5.47;3.70;;;17.20;99.90;;;;;;5123815;27;20482;-64
2023/07/12 02:37:16;;;;;;;5.43;3.95;;;17.20;99.90;;;;;;5123973;27;20035;-64
2023/07/12 02:39:42;;;;;;;6.78;3.80;;;17.20;99.90;;;;;;5120698;28;20446;-64
2023/07/12 02:42:08;;;;;;;6.22;3.55;;;17.30;99.90;;;;;;5122275;28;20044;-64
2023/07/12 02:44:34;;;;;;;5.32;4.22;;;17.30;99.90;;;;;;5115118;28;20066;-63
2023/07/12 02:47:00;;;;;;;7.55;3.95;;;17.30;99.90;;;;;;5120295;28;20055;-65
2023/07/12 02:49:25;;;;;;;8.50;3.90;;;17.30;99.90;;;;;;5127621;28;20031;-64
2023/07/12 02:51:51;;;;;;;6.65;3.90;;;17.30;99.90;;;;;;5125831;27;20032;-63
2023/07/12 02:54:17;;;;;;;9.40;3.38;;;17.20;99.90;;;;;;5115930;28;20043;-63
2023/07/12 02:56:42;;;;;;;10.18;3.90;;;17.20;99.90;;;;;;5123623;28;20035;-65
2023/07/12 02:59:08;;;;;;;10.55;3.88;;;17.10;99.90;;;;;;5114502;28;20035;-64
2023/07/12 03:01:34;;;;;;;9.73;3.47;;;17.20;99.90;;;;;;5111061;28;20035;-65
2023/07/12 03:04:00;;;;;;;11.50;3.25;;;17.00;99.90;;;;;;5122371;28;20043;-64
2023/07/12 03:06:25;;;;;;;7.22;3.35;;;16.90;99.90;;;;;;5129875;28;20039;-65
2023/07/12 03:08:51;;;;;;;10.68;3.53;;;16.90;99.90;;;;;;5125787;27;20509;-64
2023/07/12 03:11:16;;;;;;;14.20;3.45;;;16.80;99.90;;;;;;5126595;27;20038;-63
2023/07/12 03:13:42;;;;;;;8.98;3.28;;;16.80;99.90;;;;;;5132999;27;20105;-66
2023/07/12 03:16:08;;;;;;;10.20;3.42;;;16.80;99.90;;;;;;5131237;27;20434;-64
2023/07/12 03:18:35;;;;;;;8.57;3.53;;;16.80;99.90;;;;;;5130996;27;20135;-64
2023/07/12 03:21:05;;;;;;;12.27;5.07;;;16.80;99.90;;;;;;5124595;27;20417;-65
2023/07/12 03:23:33;;;;;;;10.80;3.83;;;16.70;99.90;;;;;;5120926;27;20043;-63
2023/07/12 03:25:59;;;;;;;12.85;3.75;;;16.70;99.90;;;;;;5113511;27;20073;-64
2023/07/12 03:28:26;;;;;;;7.97;3.60;;;16.60;99.90;;;;;;5119682;27;20046;-64
2023/07/12 03:31:03;;;;;;;8.35;3.53;;;16.60;99.90;;;;;;5123874;27;20050;-64
2023/07/12 03:33:29;;;;;;;11.50;3.88;;;16.70;99.90;;;;;;5123029;27;20126;-65
2023/07/12 03:35:56;;;;;;;7.18;3.30;;;16.60;99.90;;;;;;5127091;27;20031;-64
2023/07/12 03:38:25;;;;;;;9.25;3.70;;;16.60;99.90;;;;;;5121499;27;20083;-65
2023/07/12 03:40:52;;;;;;;7.68;3.53;;;16.60;99.90;;;;;;5130719;27;20148;-63
2023/07/12 03:43:17;;;;;;;8.88;3.95;;;16.60;99.90;;;;;;5122202;27;20401;-64
2023/07/12 03:45:43;;;;;;;11.05;3.58;;;16.60;99.90;;;;;;5116646;27;20027;-63
2023/07/12 03:48:09;;;;;;;8.70;3.42;;;16.60;99.90;;;;;;5127871;27;20370;-65
2023/07/12 03:50:42;;;;;;;10.50;4.10;;;16.60;99.90;;;;;;5123472;27;20062;-63
2023/07/12 03:53:08;;;;;;;13.98;4.00;;;16.60;99.90;;;;;;5116155;27;20363;-64
2023/07/12 03:55:39;;;;;;;9.00;3.67;;;16.70;99.90;;;;;;5124334;27;20070;-64
2023/07/12 03:58:04;;;;;;;10.35;4.07;;;16.60;99.90;;;;;;5107732;27;20055;-64
2023/07/12 04:00:30;;;;;;;10.25;3.78;;;16.70;99.90;;;;;;5115982;27;20490;-65
2023/07/12 04:02:56;;;;;;;8.52;3.65;;;16.70;99.90;;;;;;5114785;27;20055;-63
2023/07/12 04:05:22;;;;;;;11.23;4.35;;;16.60;99.90;;;;;;5123766;27;20039;-63
2023/07/12 04:07:47;;;;;;;9.98;4.07;;;16.60;99.90;;;;;;5124741;27;20770;-65
2023/07/12 04:10:13;;;;;;;8.82;4.18;;;16.60;99.90;;;;;;5131353;27;20027;-65
2023/07/12 04:12:39;;;;;;;8.15;3.97;;;16.60;99.90;;;;;;5117090;27;20108;-64
2023/07/12 04:15:06;;;;;;;7.97;4.07;;;16.60;99.90;;;;;;5123744;27;20409;-64
2023/07/12 04:17:32;;;;;;;10.00;3.72;;;16.60;99.90;;;;;;5097036;27;20043;-64
2023/07/12 04:19:58;;;;;;;12.43;4.35;;;16.60;99.90;;;;;;5122866;27;20050;-64
2023/07/12 04:22:24;;;;;;;12.27;4.10;;;16.60;99.90;;;;;;5125772;27;20051;-65
2023/07/12 04:24:53;;;;;;;10.75;4.32;;;16.60;99.90;;;;;;5124710;27;20064;-64
2023/07/12 04:27:19;;;;;;;9.73;4.25;;;16.60;99.90;;;;;;5120375;27;20031;-63
2023/07/12 04:29:45;;;;;;;11.07;4.63;;;16.60;99.90;;;;;;5123213;27;20190;-65
2023/07/12 04:32:11;;;;;;;14.30;4.60;;;16.60;99.90;;;;;;5101523;27;20051;-65
2023/07/12 04:34:37;;;;;;;8.07;4.45;;;16.60;99.90;;;;;;5119811;27;20490;-64
2023/07/12 04:37:03;;;;;;;7.90;4.25;;;16.60;99.90;;;;;;5129480;27;20088;-64
2023/07/12 04:39:29;;;;;;;12.32;4.18;;;16.50;99.90;;;;;;5127117;27;20059;-64
2023/07/12 04:41:54;;;;;;;10.80;4.53;;;16.60;99.90;;;;;;5129653;27;20111;-63
2023/07/12 04:44:20;;;;;;;13.18;4.55;;;16.50;99.90;;;;;;5124968;27;20477;-65
2023/07/12 04:46:45;;;;;;;10.73;4.10;;;16.50;99.90;;;;;;5126852;27;20102;-64
2023/07/12 04:49:11;;;;;;;15.90;4.90;;;16.60;99.90;;;;;;5131097;27;20065;-64
2023/07/12 04:51:37;;;;;;;10.52;4.82;;;16.60;99.90;;;;;;5124833;27;20061;-64
2023/07/12 04:54:02;;;;;;;11.52;4.85;;;16.60;99.90;;;;;;5117256;27;20039;-65
2023/07/12 04:56:28;;;;;;;9.65;4.45;;;16.60;99.90;;;;;;5123789;27;20148;-63
2023/07/12 04:58:54;;;;;;;10.20;4.32;;;16.60;99.90;;;;;;5117320;27;20031;-65
2023/07/12 05:01:21;;;;;;;11.82;4.32;;;16.60;99.90;;;;;;5118235;27;20052;-64
2023/07/12 05:03:47;;;;;;;13.65;4.60;;;16.60;99.90;;;;;;5114900;27;20505;-64
2023/07/12 05:06:13;;;;;;;9.98;4.10;;;16.70;99.90;;;;;;5119748;27;20110;-64
2023/07/12 05:08:39;;;;;;;11.15;4.30;;;16.70;99.90;;;;;;5126714;27;20112;-63
2023/07/12 05:11:04;;;;;;;11.23;4.25;;;16.80;99.90;;;;;;5126088;27;20057;-63
2023/07/12 05:13:30;;;;;;;15.23;5.10;;;16.90;99.90;;;;;;5122027;27;20426;-64
2023/07/12 05:15:56;;;;;;;7.00;3.88;;;16.90;99.90;;;;;;5121892;27;20136;-63
2023/07/12 05:18:22;;;;;;;12.95;4.63;;;17.00;99.90;;;;;;5128802;27;20072;-64
2023/07/12 05:20:50;;;;;;;13.77;5.53;;;16.90;99.90;;;;;;5126875;27;20046;-63
2023/07/12 05:23:15;;;;;;;11.18;4.75;;;16.90;99.90;;;;;;5135345;27;20398;-64
2023/07/12 05:25:52;;;;;;;11.85;4.90;;;16.90;99.90;;;;;;5102761;27;20038;-65
2023/07/12 05:28:18;;;;;;;8.70;4.90;;;16.90;99.90;;;;;;5131736;27;20380;-64
2023/07/12 05:30:44;;;;;;;10.10;4.80;;;16.80;99.90;;;;;;5147929;27;20045;-64
2023/07/12 05:33:09;;;;;;;15.40;5.55;;;16.90;99.90;;;;;;5127299;27;20168;-63
2023/07/12 05:35:35;;;;;;;11.50;5.18;;;16.90;99.90;;;;;;5141885;27;20487;-64
2023/07/12 05:38:02;;;;;;;12.50;5.32;;;16.90;99.90;;;;;;5116788;27;20046;-62
2023/07/12 05:40:29;;;;;;;12.55;4.90;;;17.00;99.90;;;;;;5146041;27;20026;-63
2023/07/12 05:42:55;;;;;;;11.68;4.70;;;17.20;99.90;;;;;;5127269;27;20448;-63
2023/07/12 05:45:21;;;;;;;9.32;4.68;;;17.20;99.90;;;;;;5121944;27;20047;-64
2023/07/12 05:47:47;;;;;;;16.17;5.35;;;17.20;99.90;;;;;;5123330;27;20505;-63
2023/07/12 05:50:15;;;;;;;12.63;5.80;;;17.30;99.90;;;;;;5126747;27;20037;-64
2023/07/12 05:52:40;;;;;;;13.05;5.47;;;17.30;99.90;;;;;;5128491;27;20038;-63
2023/07/12 05:55:08;;;;;;;15.38;6.18;;;17.30;99.90;;;;;;5142018;27;20048;-63
2023/07/12 05:57:34;;;;;;;13.30;5.43;;;17.30;99.90;;;;;;5132145;27;20048;-64
2023/07/12 06:00:01;;;;;;;13.50;6.13;;;17.40;99.90;;;;;;5127446;27;20113;-64
2023/07/12 06:02:27;;;;;;;10.00;5.82;;;17.40;99.90;;;;;;5124898;27;20113;-64
2023/07/12 06:04:52;;;;;;;17.40;6.65;;;17.50;99.90;;;;;;5127370;27;20051;-64
2023/07/12 06:07:18;;;;;;;12.80;5.90;;;17.50;99.90;;;;;;5140971;27;20450;-64
2023/07/12 06:09:44;;;;;;;15.50;6.47;;;17.50;99.90;;;;;;5114120;27;20034;-64
2023/07/12 06:12:10;;;;;;;12.93;6.75;;;17.50;99.90;;;;;;5114876;27;20115;-63
2023/07/12 06:14:37;;;;;;;13.52;6.75;;;17.50;99.90;;;;;;5124667;27;20125;-62
2023/07/12 06:17:04;;;;;;;12.65;6.30;;;17.60;99.90;;;;;;5118343;27;20042;-63
2023/07/12 06:19:29;;;;;;;12.45;6.45;;;17.80;99.90;;;;;;5118708;27;20431;-63
2023/07/12 06:21:55;;;;;;;14.65;7.28;;;17.90;99.90;;;;;;5123760;27;20107;-64
2023/07/12 06:24:21;;;;;;;13.10;6.47;;;18.00;99.90;;;;;;5127610;27;20047;-64
2023/07/12 06:26:46;;;;;;;12.70;6.75;;;18.10;99.90;;;;;;5127661;27;20046;-63
2023/07/12 06:29:12;;;;;;;14.77;6.75;;;18.30;99.90;;;;;;5151063;27;20034;-65
2023/07/12 06:31:38;;;;;;;11.93;6.90;;;18.40;99.90;;;;;;5120389;27;20401;-64
2023/07/12 06:34:04;;;;;;;13.90;6.72;;;18.40;99.90;;;;;;5142598;27;20038;-64
2023/07/12 06:36:33;;;;;;;13.52;7.57;;;18.40;99.90;;;;;;5135221;27;20039;-64
2023/07/12 06:38:59;;;;;;;17.65;7.40;;;18.40;99.90;;;;;;5119828;27;20046;-64
2023/07/12 06:41:25;;;;;;;13.35;6.85;;;18.30;99.90;;;;;;5115902;27;20435;-63
2023/07/12 06:43:50;;;;;;;15.15;6.82;;;18.30;99.90;;;;;;5122983;27;20507;-64
2023/07/12 06:46:17;;;;;;;12.18;5.85;;;18.30;99.90;;;;;;5127299;27;20054;-64
2023/07/12 06:48:42;;;;;;;14.27;5.97;;;18.40;99.90;;;;;;5116718;27;20079;-64
2023/07/12 06:51:08;;;;;;;9.93;5.45;;;18.40;99.90;;;;;;5122656;27;20069;-64
2023/07/12 06:53:33;;;;;;;14.77;6.10;;;18.40;99.90;;;;;;5128300;27;20078;-64
2023/07/12 06:55:59;;;;;;;12.85;5.80;;;18.40;99.90;;;;;;5124215;27;20035;-65
2023/07/12 06:58:25;;;;;;;12.00;5.97;;;18.30;99.90;;;;;;5120199;27;20047;-65
2023/07/12 07:00:50;;;;;;;12.40;5.40;;;18.30;99.90;;;;;;5124146;28;21769;-65
2023/07/12 07:03:17;;;;;;;10.18;5.40;;;18.20;99.90;;;;;;5127447;27;20384;-65
2023/07/12 07:05:45;;;;;;;14.90;5.90;;;18.10;99.90;;;;;;5128740;27;20034;-64
2023/07/12 07:08:13;;;;;;;15.23;6.65;;;18.00;99.90;;;;;;5112771;27;20035;-64
2023/07/12 07:10:39;;;;;;;15.18;5.68;;;18.10;99.90;;;;;;5131333;27;20050;-65
2023/07/12 07:13:04;;;;;;;12.20;5.50;;;18.30;99.90;;;;;;5130233;27;20047;-64
2023/07/12 07:15:30;;;;;;;14.00;5.82;;;18.20;99.90;;;;;;5128325;28;20043;-64
2023/07/12 07:17:56;;;;;;;12.95;5.45;;;18.30;99.90;;;;;;5145256;27;20615;-64
2023/07/12 07:20:22;;;;;;;10.63;5.45;;;18.40;99.90;;;;;;5129806;27;20046;-64
2023/07/12 07:22:48;;;;;;;12.65;5.32;;;18.40;99.90;;;;;;5126828;27;20175;-64
2023/07/12 07:25:14;;;;;;;13.13;5.70;;;18.40;99.90;;;;;;5136650;27;20070;-64
2023/07/12 07:27:39;;;;;;;9.43;4.82;;;18.30;99.90;;;;;;5099923;28;20031;-64
2023/07/12 07:30:06;;;;;;;13.60;4.82;;;18.30;99.90;;;;;;5095761;27;20481;-64
2023/07/12 07:32:32;;;;;;;11.07;4.18;;;18.60;99.90;;;;;;5111580;27;20047;-63
2023/07/12 07:34:58;;;;;;;13.05;5.50;;;18.60;99.90;;;;;;5123361;27;20431;-64
2023/07/12 07:37:23;;;;;;;14.25;4.88;;;18.90;99.90;;;;;;5124091;27;20064;-64
2023/07/12 07:39:49;;;;;;;9.05;4.75;;;19.00;99.90;;;;;;5130516;27;20055;-65
2023/07/12 07:42:14;;;;;;;8.60;4.90;;;19.20;99.90;;;;;;5115001;27;20074;-64
2023/07/12 07:44:40;;;;;;;11.80;4.80;;;19.30;99.90;;;;;;5114896;27;20126;-64
2023/07/12 07:47:06;;;;;;;8.98;4.20;;;19.40;99.90;;;;;;5116458;27;20039;-64
2023/07/12 07:49:31;;;;;;;12.57;4.80;;;19.50;99.90;;;;;;5140941;27;20030;-64
2023/07/12 07:51:57;;;;;;;9.48;4.93;;;19.60;99.90;;;;;;5117679;27;20046;-65
2023/07/12 07:54:22;;;;;;;11.55;4.55;;;19.50;99.90;;;;;;5126229;27;20039;-65
2023/07/12 07:56:51;;;;;;;10.70;4.63;;;19.60;99.90;;;;;;5123892;27;20090;-65
2023/07/12 07:59:17;;;;;;;12.07;4.82;;;19.80;99.90;;;;;;5118625;27;20035;-64
2023/07/12 08:01:42;;;;;;;12.55;4.88;;;20.00;99.90;;;;;;5123189;27;20031;-65
2023/07/12 08:04:09;;;;;;;14.15;5.10;;;20.20;99.90;;;;;;5125215;27;20390;-65
2023/07/12 08:06:35;;;;;;;9.13;4.60;;;20.20;99.90;;;;;;5123768;27;20582;-66
2023/07/12 08:09:01;;;;;;;11.57;4.50;;;20.50;99.90;;;;;;5119937;27;20034;-65
2023/07/12 08:11:27;;;;;;;10.77;4.68;;;20.30;99.90;;;;;;5114514;27;20119;-65
2023/07/12 08:13:52;;;;;;;14.10;4.78;;;20.40;99.90;;;;;;5105187;27;20050;-64
2023/07/12 08:16:18;;;;;;;13.15;4.47;;;20.20;99.90;;;;;;5120431;27;20122;-64
2023/07/12 08:18:44;;;;;;;11.20;4.00;;;20.00;99.90;;;;;;5115146;27;20054;-65
2023/07/12 08:21:12;;;;;;;14.50;4.85;;;19.90;99.90;;;;;;5126906;27;20062;-65
2023/07/12 08:23:37;;;;;;;12.05;4.60;;;20.00;99.90;;;;;;5125799;27;20054;-66
2023/07/12 08:26:03;;;;;;;8.73;4.90;;;20.00;99.90;;;;;;5116115;27;20374;-64
2023/07/12 08:28:29;;;;;;;11.10;4.70;;;20.00;99.90;;;;;;5122593;27;20146;-64
2023/07/12 08:30:54;;;;;;;11.93;3.85;;;19.80;99.90;;;;;;5115781;27;20039;-64
2023/07/12 08:33:20;;;;;;;11.05;3.50;;;19.70;99.90;;;;;;5128887;27;20042;-65
2023/07/12 08:35:46;;;;;;;11.40;4.47;;;19.60;99.90;;;;;;5134212;27;20508;-64
2023/07/12 08:38:12;;;;;;;9.10;4.53;;;19.30;99.90;;;;;;5119531;27;20035;-65
2023/07/12 08:40:43;;;;;;;14.05;4.30;;;19.00;99.90;;;;;;5121763;27;20066;-65
2023/07/12 08:43:15;;;;;;;10.90;4.77;;;18.90;99.90;;;;;;5130024;27;20035;-65
2023/07/12 08:45:43;;;;;;;8.65;4.90;;;18.70;99.90;;;;;;5131104;27;20046;-65
2023/07/12 08:48:18;;;;;;;9.23;4.38;;;18.70;99.90;;;;;;5126087;27;20052;-65
2023/07/12 08:50:45;;;;;;;11.48;4.80;;;18.70;99.90;;;;;;5142109;27;20115;-65
2023/07/12 08:53:16;;;;;;;13.00;4.63;;;18.60;99.90;;;;;;5119072;27;20047;-65
2023/07/12 08:55:42;;;;;;;11.15;4.15;;;18.50;99.90;;;;;;5113798;27;20043;-63
2023/07/12 08:58:22;;;;;;;8.68;4.28;;;18.60;99.90;;;;;;5137903;27;20046;-65
2023/07/12 09:00:56;;;;;;;11.75;3.92;;;18.70;99.90;;;;;;5123269;27;20030;-65
2023/07/12 09:03:22;;;;;;;10.60;3.47;;;18.80;99.90;;;;;;5121838;27;21854;-64
2023/07/12 09:05:47;;;;;;;10.63;4.30;;;18.80;99.90;;;;;;5152169;27;20030;-65
2023/07/12 09:08:25;;;;;;;10.20;3.50;;;18.90;99.90;;;;;;5115459;27;20047;-64
2023/07/12 09:10:57;;;;;;;10.15;3.35;;;19.10;99.90;;;;;;5125254;27;20047;-64
2023/07/12 09:13:33;;;;;;;;;;;19.30;99.90;;;;;;5127322;27;20187;-64
2023/07/12 09:15:59;;;;;;;11.77;3.70;;;19.40;99.90;;;;;;5123096;27;19915;-65
2023/07/12 09:18:29;;;;;;;9.93;3.55;;;19.50;99.90;;;;;;5118610;27;20397;-65
2023/07/12 09:20:58;;;;;;;11.38;3.22;;;19.90;99.90;;;;;;5113085;27;20406;-65
2023/07/12 09:23:25;;;;;;;13.63;3.55;;;20.40;99.90;;;;;;5122418;27;20042;-64
2023/07/12 09:25:55;;;;;;;7.65;3.28;;;20.70;99.90;;;;;;5122649;27;20497;-66
2023/07/12 09:28:22;;;;;;;8.95;3.08;;;20.70;99.90;;;;;;5113226;27;20042;-65
2023/07/12 09:30:51;;;;;;;9.10;3.10;;;20.50;99.90;;;;;;5139002;27;20187;-65
2023/07/12 09:33:21;;;;;;;7.70;3.22;;;20.30;99.90;;;;;;5143418;27;20031;-64
2023/07/12 09:35:49;;;;;;;7.22;2.60;;;20.10;99.90;;;;;;5120415;27;20386;-64
2023/07/12 09:38:17;;;;;;;9.30;2.78;;;19.80;99.90;;;;;;5127387;27;20047;-65
2023/07/12 09:40:48;;;;;;;9.73;3.22;;;19.90;99.90;;;;;;5125273;27;20035;-65
2023/07/12 09:43:19;;;;;;;6.50;2.30;;;20.00;99.90;;;;;;5116703;27;20542;-65
2023/07/12 09:45:49;;;;;;;9.90;2.40;;;20.20;99.90;;;;;;5112229;27;20043;-65
2023/07/12 09:48:36;;;;;;;9.18;2.30;;;20.60;99.90;;;;;;5128616;27;20484;-65
2023/07/12 09:51:34;;;;;;;8.50;3.45;;;21.00;99.90;;;;;;5120392;27;20129;-64
2023/07/12 09:54:24;;;;;;;7.65;2.38;;;21.30;99.90;;;;;;5112406;27;20039;-66
2023/07/12 09:56:55;;;;;;;5.10;1.67;;;21.10;99.90;;;;;;5125532;27;20038;-65
2023/07/12 09:59:37;;;;;;;8.00;2.20;;;21.30;99.90;;;;;;5111901;27;20047;-65
2023/07/12 10:02:29;;;;;;;5.78;2.00;;;21.20;99.90;;;;;;5119149;27;20043;-65
2023/07/12 10:04:59;;;;;;;6.05;1.50;;;21.10;99.90;;;;;;5121725;27;20046;-64
2023/07/12 10:07:51;;;;;;;7.28;2.25;;;21.00;99.90;;;;;;5113492;27;20450;-65
2023/07/12 10:10:35;;;;;;;6.63;2.08;;;21.00;99.90;;;;;;5114749;27;20043;-64
2023/07/12 10:13:17;;;;;;;6.65;2.15;;;21.00;99.90;;;;;;5118102;27;20119;-64
2023/07/12 10:15:43;;;;;;;5.63;1.95;;;21.40;99.90;;;;;;5114472;27;20082;-64
2023/07/12 10:18:18;;;;;;;7.22;2.35;;;21.50;99.90;;;;;;5122755;27;20390;-65
2023/07/12 10:20:45;;;;;;;9.90;1.67;;;21.60;99.90;;;;;;5094882;27;20054;-65
2023/07/12 10:23:12;;;;;;;4.78;1.60;;;21.70;99.90;;;;;;5111371;27;20051;-64
2023/07/12 10:25:44;;;;;;;4.78;1.60;;;21.80;99.90;;;;;;5099893;27;20562;-65
2023/07/12 10:28:32;;;;;;;5.38;1.83;;;21.80;99.90;;;;;;5102591;28;20454;-65
2023/07/12 10:31:00;;;;;;;5.00;1.50;;;22.00;99.90;;;;;;5110705;27;20039;-65
2023/07/12 10:33:44;;;;;;;3.95;1.60;;;22.00;99.90;;;;;;5109625;27;20038;-66
2023/07/12 10:36:21;;;;;;;6.90;1.90;;;21.90;99.90;;;;;;5124123;27;20046;-65
2023/07/12 10:38:48;;;;;;;5.40;1.77;;;22.00;99.90;;;;;;5104859;27;20413;-66
2023/07/12 10:41:26;;;;;;;5.13;1.88;;;22.30;99.90;;;;;;5118854;27;20035;-65
2023/07/12 10:44:03;;;;;;;2.55;1.33;;;22.60;99.90;;;;;;5130176;27;20512;-66
2023/07/12 10:46:43;;;;;;;4.13;1.35;;;22.70;99.90;;;;;;5126530;27;20113;-64
2023/07/12 10:49:14;;;;;;;4.90;1.60;;;22.80;99.90;;;;;;5131299;27;20217;-64
2023/07/12 10:51:44;;;;;;;6.07;1.60;;;22.90;99.90;;;;;;5129911;27;20149;-66
2023/07/12 10:54:29;;;;;;;6.40;1.80;;;23.00;99.90;;;;;;5098463;27;20373;-65
2023/07/12 10:57:01;;;;;;;4.50;1.60;;;22.90;99.90;;;;;;5118356;27;20039;-64
2023/07/12 10:59:33;;;;;;;4.57;1.50;;;22.90;99.90;;;;;;5114885;27;20047;-65
2023/07/12 11:02:04;;;;;;;5.45;1.67;;;22.60;99.90;;;;;;5128426;27;20413;-66
2023/07/12 11:04:29;;;;;;;4.75;1.60;;;22.40;99.90;;;;;;5116212;27;20053;-64
2023/07/12 11:07:03;;;;;;;4.10;1.40;;;22.30;99.90;;;;;;5121590;27;20431;-66
2023/07/12 11:09:47;;;;;;;4.03;1.40;;;22.30;99.90;;;;;;5139556;27;20429;-65
2023/07/12 11:12:16;;;;;;;3.85;1.33;;;22.20;99.90;;;;;;5100624;27;20074;-66
2023/07/12 11:15:17;;;;;;;4.13;1.70;;;22.10;99.90;;;;;;5112149;27;20170;-66
2023/07/12 11:17:51;;;;;;;7.10;1.95;;;22.40;99.90;;;;;;5022387;28;20049;-64
2023/07/12 11:20:25;;;;;;;4.80;1.73;;;22.80;99.90;;;;;;5022364;28;20042;-64
2023/07/12 11:23:00;;;;;;;6.10;1.90;;;23.10;99.90;;;;;;5018798;28;20046;-65
2023/07/12 11:25:44;;;;;;;4.65;1.70;;;23.20;99.90;;;;;;5025798;28;20048;-66
2023/07/12 11:28:22;;;;;;;3.33;1.48;;;23.30;99.90;;;;;;5027124;28;20103;-65
2023/07/12 11:31:12;;;;;;;4.88;1.50;;;23.20;99.90;;;;;;5028432;28;20052;-65
2023/07/12 11:33:38;;;;;;;5.38;1.90;;;22.90;99.90;;;;;;5016188;28;20103;-64
2023/07/12 11:36:19;;;;;;;4.97;1.70;;;22.60;99.90;;;;;;5026889;28;20041;-64
2023/07/12 11:38:46;;;;;;;3.58;1.33;;;22.50;99.90;;;;;;5017413;28;20484;-66
2023/07/12 11:41:17;;;;;;;3.97;1.50;;;22.60;99.90;;;;;;5041751;28;20268;-64
2023/07/12 11:43:43;;;;;;;3.78;1.30;;;22.90;99.90;;;;;;5016972;28;20103;-64
2023/07/12 11:46:22;;;;;;;7.43;1.85;;;22.90;99.90;;;;;;5022879;28;20519;-64
2023/07/12 11:48:54;;;;;;;2.97;1.00;;;22.90;99.50;;;;;;5042828;28;20067;-64
2023/07/12 11:51:29;;;;;;;3.10;1.17;;;22.60;98.10;;;;;;5023683;28;20091;-66
2023/07/12 11:53:57;;;;;;;3.78;1.25;;;22.70;99.90;;;;;;5071599;27;20089;-65
2023/07/12 11:56:24;;;;;;;4.57;1.25;;;22.60;99.70;;;;;;5107135;27;20050;-62
2023/07/12 11:58:49;;;;;;;2.47;1.30;;;22.70;99.90;;;;;;5117391;27;20046;-64
2023/07/12 12:01:23;;;;;;;5.97;1.90;;;22.80;99.90;;;;;;5120298;27;20085;-64
2023/07/12 12:03:51;;;;;;;4.30;1.50;;;22.90;99.80;;;;;;5132579;27;20321;-64
2023/07/12 12:06:18;;;;;;;3.10;1.20;;;22.80;99.20;;;;;;5105148;27;20039;-66
2023/07/12 12:08:51;;;;;;;4.40;1.20;;;22.80;99.80;;;;;;5117355;27;20130;-64
2023/07/12 12:11:17;;;;;;;3.83;1.10;;;22.90;99.50;;;;;;5113275;27;20050;-64
2023/07/12 12:13:53;;;;;;;3.90;1.10;;;23.00;99.70;;;;;;5123377;27;20489;-64
2023/07/12 12:16:30;;;;;;;2.97;1.20;;;23.10;99.40;;;;;;5129540;27;20038;-65
2023/07/12 12:19:17;;;;;;;2.65;1.35;;;23.30;99.90;;;;;;5119815;27;20074;-63
2023/07/12 12:21:51;;;;;;;4.00;1.10;;;23.30;98.70;;;;;;5118976;27;20106;-65
2023/07/12 12:24:19;;;;;;;3.30;1.10;;;23.20;98.80;;;;;;5098606;27;20050;-64
2023/07/12 12:26:48;;;;;;;3.78;1.35;;;23.30;98.40;;;;;;5120882;27;20062;-66
2023/07/12 12:29:21;;;;;;;4.05;1.20;;;23.10;98.50;;;;;;5112947;27;20370;-65
2023/07/12 12:32:02;;;;;;;1.98;0.70;;;22.90;97.10;;;;;;5117043;27;20047;-63
2023/07/12 12:34:43;;;;;;;2.58;0.80;;;22.90;96.00;;;;;;5136876;27;20505;-63
2023/07/12 12:37:12;;;;;;;2.85;1.00;;;22.90;97.10;;;;;;5115693;27;20145;-65
2023/07/12 12:39:38;;;;;;;3.28;0.88;;;22.90;97.60;;;;;;5133056;27;20141;-65
2023/07/12 12:42:17;;;;;;;2.80;0.85;;;22.80;97.10;;;;;;5116718;27;20501;-64
2023/07/12 12:44:43;;;;;;;3.92;1.23;;;22.70;98.20;;;;;;5108316;27;20064;-66
2023/07/12 12:47:20;;;;;;;3.17;0.95;;;22.70;97.40;;;;;;5132447;27;20134;-65
2023/07/12 12:49:46;;;;;;;3.97;1.02;;;22.70;96.10;;;;;;5132179;27;20039;-64
2023/07/12 12:52:32;;;;;;;3.13;1.17;;;22.50;97.00;;;;;;5115646;27;20043;-65